Terminal Aerodrome Forecast
Issued by NWS Sterling, VA

Current Version | Previous Version | Graphics & Text | Print | Product List | Glossary On
Versions: 1 2 3 4 5 6 7 8 9 10 11 12 13 14 15 16 17 18
000
FTUS41 KLWX 020527
TAFMRB
TAF
KMRB 020527Z 0206/0306 16003KT P6SM -RA OVC015
     FM020900 03008KT 4SM -SHRA BR OVC015
     FM021400 01006KT P6SM -SHRA OVC010
     FM021600 01006KT P6SM OVC010
     FM021900 01006KT P6SM OVC020
     FM030500 05005KT P6SM OVC010=

USA.gov is the U.S. government's official web portal to all federal, state and local government web resources and services.